createdAt,value
2024-02-20T00:00:39.304Z,26.19
2024-02-20T00:01:39.305Z,26.19
2024-02-20T00:02:39.269Z,26.20
2024-02-20T00:03:39.346Z,26.20
2024-02-20T00:04:39.551Z,26.20
2024-02-20T00:05:39.551Z,26.19
2024-02-20T00:06:39.536Z,26.20
2024-02-20T00:07:39.640Z,26.20
2024-02-20T00:08:39.544Z,26.19
2024-02-20T00:09:39.572Z,26.19
2024-02-20T00:10:39.711Z,26.19
2024-02-20T00:11:39.776Z,26.17
2024-02-20T00:12:39.727Z,26.20
2024-02-20T00:13:39.832Z,26.17
2024-02-20T00:14:39.800Z,26.19
2024-02-20T00:15:39.860Z,26.17
2024-02-20T00:16:39.951Z,26.17
2024-02-20T00:17:39.924Z,26.19
2024-02-20T00:18:39.979Z,26.19
2024-02-20T00:19:40.045Z,26.19
2024-02-20T00:20:40.037Z,26.20
2024-02-20T00:21:40.042Z,26.20
2024-02-20T00:22:40.157Z,26.16
2024-02-20T00:23:40.142Z,26.17
2024-02-20T00:24:40.173Z,26.20
2024-02-20T00:25:40.298Z,26.16
2024-02-20T00:26:40.259Z,26.17
2024-02-20T00:27:40.304Z,26.17
2024-02-20T00:28:40.373Z,26.20
2024-02-20T00:29:40.393Z,26.16
2024-02-20T00:30:40.483Z,26.19
2024-02-20T00:31:40.513Z,26.17
2024-02-20T00:32:40.602Z,26.17
2024-02-20T00:33:40.648Z,26.19
2024-02-20T00:34:40.704Z,26.19
2024-02-20T00:36:40.707Z,26.17
2024-02-20T00:37:40.825Z,26.19
2024-02-20T00:38:40.768Z,26.17
2024-02-20T00:39:40.832Z,26.17
2024-02-20T00:40:41.116Z,26.17
2024-02-20T00:41:40.926Z,26.17
2024-02-20T00:42:40.958Z,26.15
2024-02-20T00:43:41.047Z,26.16
2024-02-20T00:44:41.050Z,26.16
2024-02-20T00:45:41.157Z,26.16
2024-02-20T00:46:41.216Z,26.15
2024-02-20T00:47:41.248Z,26.16
2024-02-20T00:48:41.326Z,26.16
2024-02-20T00:49:41.391Z,26.16
2024-02-20T00:50:41.331Z,26.17
2024-02-20T00:51:41.403Z,26.16
2024-02-20T00:52:41.486Z,26.17
2024-02-20T00:53:41.482Z,26.15
2024-02-20T00:54:41.612Z,26.17
2024-02-20T00:55:41.684Z,26.15
2024-02-20T00:56:41.628Z,26.16
2024-02-20T00:57:41.678Z,26.16
2024-02-20T00:58:41.770Z,26.15
2024-02-20T00:59:41.769Z,26.19
2024-02-20T01:00:41.880Z,26.16
2024-02-20T01:01:41.986Z,26.15
2024-02-20T01:03:04.951Z,26.16
2024-02-20T01:03:41.910Z,26.15
2024-02-20T01:04:42.266Z,26.15
2024-02-20T01:05:42.023Z,26.15
2024-02-20T01:06:41.947Z,26.17
2024-02-20T01:07:41.973Z,26.13
2024-02-20T01:08:41.910Z,26.15
2024-02-20T01:09:41.895Z,26.15
2024-02-20T01:10:42.004Z,26.13
2024-02-20T01:11:42.052Z,26.13
2024-02-20T01:12:42.087Z,26.15
2024-02-20T01:13:42.148Z,26.17
2024-02-20T01:14:42.221Z,26.16
2024-02-20T01:15:42.253Z,26.16
2024-02-20T01:16:42.345Z,26.17
2024-02-20T01:17:42.420Z,26.16
2024-02-20T01:18:42.451Z,26.15
2024-02-20T01:19:42.508Z,26.15
2024-02-20T01:20:42.582Z,26.13
2024-02-20T01:21:42.576Z,26.16
2024-02-20T01:22:42.743Z,26.13
2024-02-20T01:23:42.706Z,26.13
2024-02-20T01:24:42.764Z,26.13
2024-02-20T01:25:42.878Z,26.15
2024-02-20T01:26:42.885Z,26.13
2024-02-20T01:27:42.965Z,26.15
2024-02-20T01:28:43.096Z,26.15
2024-02-20T01:29:43.083Z,26.13
2024-02-20T01:30:43.152Z,26.15
2024-02-20T01:31:43.252Z,26.17
2024-02-20T01:32:43.293Z,26.13
2024-02-20T01:33:43.352Z,26.13
2024-02-20T01:34:43.402Z,26.15
2024-02-20T01:35:43.424Z,26.15
2024-02-20T01:36:43.482Z,26.15
2024-02-20T01:37:43.673Z,26.16
2024-02-20T01:38:43.599Z,26.13
2024-02-20T01:39:43.676Z,26.16
2024-02-20T01:40:43.761Z,26.15
2024-02-20T01:41:43.764Z,26.15
2024-02-20T01:42:43.829Z,26.13
2024-02-20T01:43:43.893Z,26.12
2024-02-20T01:44:43.984Z,26.15
2024-02-20T01:45:44.048Z,26.13
2024-02-20T01:46:44.127Z,26.15
2024-02-20T01:47:44.221Z,26.15
2024-02-20T01:48:44.332Z,26.15
2024-02-20T01:49:44.453Z,26.15
2024-02-20T01:50:44.517Z,26.13
2024-02-20T01:51:44.381Z,26.13
2024-02-20T01:52:44.406Z,26.13
2024-02-20T01:53:44.491Z,26.13
2024-02-20T01:54:44.538Z,26.13
2024-02-20T01:55:44.633Z,26.12
2024-02-20T01:56:44.639Z,26.13
2024-02-20T01:57:44.693Z,26.16
2024-02-20T01:58:44.756Z,26.12
2024-02-20T01:59:44.818Z,26.13
2024-02-20T02:00:44.944Z,26.13
2024-02-20T02:01:44.968Z,26.15
2024-02-20T02:02:44.974Z,26.12
2024-02-20T02:03:45.110Z,26.13
2024-02-20T02:04:45.267Z,26.12
2024-02-20T02:05:45.401Z,26.15
2024-02-20T02:06:45.230Z,26.12
2024-02-20T02:07:45.305Z,26.13
2024-02-20T02:08:45.316Z,26.13
2024-02-20T02:09:45.390Z,26.12
2024-02-20T02:10:46.008Z,26.10
2024-02-20T02:11:45.556Z,26.10
2024-02-20T02:12:45.554Z,26.12
2024-02-20T02:13:45.615Z,26.12
2024-02-20T02:14:45.681Z,26.10
2024-02-20T02:15:45.767Z,26.12
2024-02-20T02:16:45.836Z,26.13
2024-02-20T02:17:45.951Z,26.12
2024-02-20T02:18:46.000Z,26.12
2024-02-20T02:19:45.959Z,26.12
2024-02-20T02:20:46.037Z,26.13
2024-02-20T02:21:46.077Z,26.10
2024-02-20T02:22:46.145Z,26.10
2024-02-20T02:23:46.203Z,26.13
2024-02-20T02:24:46.254Z,26.13
2024-02-20T02:25:46.352Z,26.12
2024-02-20T02:26:46.369Z,26.10
2024-02-20T02:27:46.434Z,26.13
2024-02-20T02:28:46.497Z,26.13
2024-02-20T02:29:46.544Z,26.10
2024-02-20T02:30:46.609Z,26.13
2024-02-20T02:31:46.655Z,26.13
2024-02-20T02:32:46.767Z,26.12
2024-02-20T02:33:46.928Z,26.12
2024-02-20T02:34:46.933Z,26.12
2024-02-20T02:35:46.915Z,26.12
2024-02-20T02:36:46.921Z,26.12
2024-02-20T02:37:46.999Z,26.10
2024-02-20T02:38:47.068Z,26.12
2024-02-20T02:39:47.105Z,26.13
2024-02-20T02:40:47.177Z,26.13
2024-02-20T02:41:47.205Z,26.12
2024-02-20T02:42:47.274Z,26.10
2024-02-20T02:43:47.352Z,26.13
2024-02-20T02:44:47.366Z,26.10
2024-02-20T02:45:47.475Z,26.10
2024-02-20T02:46:47.491Z,26.12
2024-02-20T02:47:47.608Z,26.15
2024-02-20T02:48:47.643Z,26.10
2024-02-20T02:49:47.873Z,26.10
2024-02-20T02:50:47.744Z,26.12
2024-02-20T02:51:47.788Z,26.15
2024-02-20T02:52:47.864Z,26.10
2024-02-20T02:53:47.903Z,26.12
2024-02-20T02:54:47.953Z,26.10
2024-02-20T02:55:48.050Z,26.09
2024-02-20T02:56:48.066Z,26.12
2024-02-20T02:57:48.177Z,26.10
2024-02-20T02:58:48.186Z,26.10
2024-02-20T02:59:48.313Z,26.13
2024-02-20T03:00:48.355Z,26.10
2024-02-20T03:01:48.486Z,26.10
2024-02-20T03:02:48.518Z,26.09
2024-02-20T03:03:48.483Z,26.10
2024-02-20T03:04:48.574Z,26.12
2024-02-20T03:05:48.616Z,26.09
2024-02-20T03:06:49.008Z,26.10
2024-02-20T03:07:48.975Z,26.12
2024-02-20T03:08:48.889Z,26.13
2024-02-20T03:09:48.880Z,26.10
2024-02-20T03:10:49.048Z,26.12
2024-02-20T03:11:48.973Z,26.12
2024-02-20T03:12:49.013Z,26.12
2024-02-20T03:13:49.152Z,26.10
2024-02-20T03:14:49.912Z,26.10
2024-02-20T03:15:49.203Z,26.10
2024-02-20T03:16:49.237Z,26.10
2024-02-20T03:17:49.331Z,26.10
2024-02-20T03:18:49.416Z,26.10
2024-02-20T03:19:49.485Z,26.10
2024-02-20T03:20:49.509Z,26.10
2024-02-20T03:21:49.500Z,26.10
2024-02-20T03:22:49.577Z,26.09
2024-02-20T03:23:49.633Z,26.10
2024-02-20T03:24:49.690Z,26.09
2024-02-20T03:25:49.771Z,26.09
2024-02-20T03:26:49.789Z,26.07
2024-02-20T03:27:49.843Z,26.10
2024-02-20T03:28:49.890Z,26.10
2024-02-20T03:29:49.970Z,26.10
2024-02-20T03:30:50.060Z,26.09
2024-02-20T03:31:50.042Z,26.09
2024-02-20T03:32:50.167Z,26.10
2024-02-20T03:33:50.291Z,26.12
2024-02-20T03:34:50.262Z,26.09
2024-02-20T03:35:50.315Z,26.09
2024-02-20T03:36:50.356Z,26.09
2024-02-20T03:37:50.404Z,26.09
2024-02-20T03:38:50.459Z,26.09
2024-02-20T03:39:50.555Z,26.09
2024-02-20T03:40:50.614Z,26.12
2024-02-20T03:41:50.632Z,26.12
2024-02-20T03:42:50.739Z,26.10
2024-02-20T03:43:50.754Z,26.09
2024-02-20T03:44:50.816Z,26.09
2024-02-20T03:45:50.952Z,26.10
2024-02-20T03:46:50.915Z,26.09
2024-02-20T03:47:51.064Z,26.10
2024-02-20T03:48:51.150Z,26.10
2024-02-20T03:49:51.223Z,26.09
2024-02-20T03:50:51.190Z,26.07
2024-02-20T03:51:51.260Z,26.09
2024-02-20T03:52:51.255Z,26.06
2024-02-20T03:53:51.341Z,26.07
2024-02-20T03:54:51.395Z,26.09
2024-02-20T03:55:51.582Z,26.07
2024-02-20T03:56:51.500Z,26.07
2024-02-20T03:57:51.599Z,26.09
2024-02-20T03:58:51.628Z,26.09
2024-02-20T03:59:51.692Z,26.07
2024-02-20T04:00:51.903Z,26.09
2024-02-20T04:01:51.852Z,26.09
2024-02-20T04:02:51.846Z,26.09
2024-02-20T04:03:52.044Z,26.10
2024-02-20T04:04:52.003Z,26.09
2024-02-20T04:05:52.119Z,26.06
2024-02-20T04:06:52.171Z,26.10
2024-02-20T04:07:52.170Z,26.06
2024-02-20T04:08:52.216Z,26.07
2024-02-20T04:09:52.294Z,26.09
2024-02-20T04:10:52.594Z,26.09
2024-02-20T04:11:52.386Z,26.07
2024-02-20T04:12:52.503Z,26.07
2024-02-20T04:13:52.520Z,26.09
2024-02-20T04:14:52.586Z,26.06
2024-02-20T04:15:52.782Z,26.09
2024-02-20T04:16:52.678Z,26.06
2024-02-20T04:17:52.782Z,26.09
2024-02-20T04:18:52.910Z,26.07
2024-02-20T04:19:52.918Z,26.07
2024-02-20T04:20:52.960Z,26.09
2024-02-20T04:21:53.021Z,26.05
2024-02-20T04:22:53.052Z,26.07
2024-02-20T04:23:53.125Z,26.07
2024-02-20T04:24:53.223Z,26.06
2024-02-20T04:25:53.265Z,26.07
2024-02-20T04:26:53.290Z,26.07
2024-02-20T04:27:53.420Z,26.09
2024-02-20T04:28:53.415Z,26.07
2024-02-20T04:29:53.462Z,26.09
2024-02-20T04:30:53.620Z,26.07
2024-02-20T04:31:53.582Z,26.07
2024-02-20T04:32:53.681Z,26.06
2024-02-20T04:33:53.794Z,26.07
2024-02-20T04:34:53.874Z,26.07
2024-02-20T04:35:53.824Z,26.09
2024-02-20T04:37:01.203Z,26.05
2024-02-20T04:38:01.104Z,26.06
2024-02-20T04:39:01.133Z,26.06
2024-02-20T04:40:01.130Z,26.06
2024-02-20T04:41:01.119Z,26.07
2024-02-20T04:42:01.111Z,26.03
2024-02-20T04:43:01.187Z,26.05
2024-02-20T04:44:01.152Z,26.06
2024-02-20T04:45:01.142Z,26.05
2024-02-20T04:46:01.145Z,26.05
2024-02-20T04:47:01.096Z,26.06
2024-02-20T04:48:01.122Z,26.07
2024-02-20T04:49:01.242Z,26.05
2024-02-20T04:50:01.222Z,26.07
2024-02-20T04:51:01.116Z,26.05
2024-02-20T04:52:01.150Z,26.07
2024-02-20T04:53:01.113Z,26.07
2024-02-20T04:54:01.120Z,26.06
2024-02-20T04:55:01.187Z,26.05
2024-02-20T04:56:01.118Z,26.06
2024-02-20T04:57:01.136Z,26.05
2024-02-20T04:58:01.178Z,26.03
2024-02-20T04:59:01.119Z,26.06
2024-02-20T05:00:01.242Z,26.07
2024-02-20T05:01:01.178Z,26.07
2024-02-20T05:02:01.133Z,26.05
2024-02-20T05:03:01.116Z,26.06
2024-02-20T05:04:01.222Z,26.05
2024-02-20T05:05:01.181Z,26.03
2024-02-20T05:06:01.153Z,26.05
2024-02-20T05:07:01.202Z,26.06
2024-02-20T05:08:01.194Z,26.06
2024-02-20T05:09:01.123Z,26.05
2024-02-20T05:10:01.269Z,26.06
2024-02-20T05:11:01.202Z,26.06
2024-02-20T05:12:01.131Z,26.07
2024-02-20T05:13:01.189Z,26.07
2024-02-20T05:14:01.134Z,26.10
2024-02-20T05:15:01.167Z,26.10
2024-02-20T05:16:01.247Z,26.07
2024-02-20T05:17:01.170Z,26.07
2024-02-20T05:18:01.167Z,26.10
2024-02-20T05:19:01.243Z,26.09
2024-02-20T05:20:01.362Z,26.10
2024-02-20T05:21:01.159Z,26.09
2024-02-20T05:22:01.183Z,26.10
2024-02-20T05:23:01.189Z,26.09
2024-02-20T05:24:01.251Z,26.10
2024-02-20T05:25:01.292Z,26.10
2024-02-20T05:26:01.335Z,26.09
2024-02-20T05:27:01.324Z,26.10
2024-02-20T05:28:01.379Z,26.09
2024-02-20T05:29:01.397Z,26.09
2024-02-20T05:30:01.454Z,26.09
2024-02-20T05:31:01.464Z,26.12
2024-02-20T05:32:01.495Z,26.12
2024-02-20T05:33:01.529Z,26.09
2024-02-20T05:34:01.739Z,26.12
2024-02-20T05:35:01.827Z,26.10
2024-02-20T05:36:01.638Z,26.09
2024-02-20T05:37:01.758Z,26.09
2024-02-20T05:38:01.660Z,26.09
2024-02-20T05:39:01.688Z,26.10
2024-02-20T05:40:01.839Z,26.09
2024-02-20T05:41:01.760Z,26.10
2024-02-20T05:42:01.798Z,26.12
2024-02-20T05:43:01.853Z,26.12
2024-02-20T05:44:01.996Z,26.09
2024-02-20T05:45:01.942Z,26.12
2024-02-20T05:46:01.963Z,26.10
2024-02-20T05:47:01.965Z,26.12
2024-02-20T05:48:02.220Z,26.12
2024-02-20T05:49:02.575Z,26.10
2024-02-20T05:50:02.282Z,26.12
2024-02-20T05:51:02.094Z,26.12
2024-02-20T05:52:02.156Z,26.10
2024-02-20T05:53:02.151Z,26.09
2024-02-20T05:54:02.229Z,26.10
2024-02-20T05:55:02.290Z,26.12
2024-02-20T05:56:02.286Z,26.12
2024-02-20T05:57:02.293Z,26.13
2024-02-20T05:58:02.360Z,26.13
2024-02-20T05:59:02.343Z,26.13
2024-02-20T06:00:02.404Z,26.12
2024-02-20T06:01:02.624Z,26.13
2024-02-20T06:02:02.526Z,26.10
2024-02-20T06:03:02.485Z,26.12
2024-02-20T06:04:02.575Z,26.12
2024-02-20T06:05:02.638Z,26.15
2024-02-20T06:06:02.726Z,26.12
2024-02-20T06:07:02.734Z,26.07
2024-02-20T06:08:02.668Z,25.96
2024-02-20T06:09:02.682Z,25.72
2024-02-20T06:10:02.761Z,25.48
2024-02-20T06:11:02.790Z,25.23
2024-02-20T06:12:02.835Z,25.02
2024-02-20T06:13:02.908Z,24.90
2024-02-20T06:14:02.899Z,24.85
2024-02-20T06:15:04.795Z,24.80
2024-02-20T06:16:02.977Z,24.80
2024-02-20T06:17:02.945Z,24.86
2024-02-20T06:18:03.009Z,24.90
2024-02-20T06:19:03.003Z,24.94
2024-02-20T06:20:03.176Z,25.03
2024-02-20T06:21:03.024Z,25.07
2024-02-20T06:22:03.016Z,25.14
2024-02-20T06:23:02.943Z,25.21
2024-02-20T06:24:02.975Z,25.28
2024-02-20T06:25:02.981Z,25.34
2024-02-20T06:26:02.996Z,25.41
2024-02-20T06:27:02.970Z,25.44
2024-02-20T06:28:03.002Z,25.49
2024-02-20T06:29:03.059Z,25.55
2024-02-20T06:30:03.139Z,25.58
2024-02-20T06:31:03.072Z,25.65
2024-02-20T06:32:02.969Z,25.69
2024-02-20T06:33:03.093Z,25.74
2024-02-20T06:34:03.177Z,25.76
2024-02-20T06:35:03.013Z,25.78
2024-02-20T06:36:03.014Z,25.82
2024-02-20T06:37:03.017Z,25.85
2024-02-20T06:38:03.004Z,25.88
2024-02-20T06:39:02.966Z,25.92
2024-02-20T06:40:02.987Z,25.93
2024-02-20T06:41:03.436Z,26.00
2024-02-20T06:42:02.961Z,26.05
2024-02-20T06:43:02.995Z,26.10
2024-02-20T06:44:02.980Z,26.15
2024-02-20T06:45:25.780Z,26.19
2024-02-20T06:46:03.025Z,26.23
2024-02-20T06:47:02.969Z,26.29
2024-02-20T06:48:03.095Z,26.32
2024-02-20T06:49:03.092Z,26.33
2024-02-20T06:50:03.140Z,26.36
2024-02-20T06:51:03.008Z,26.39
2024-02-20T06:52:03.033Z,26.43
2024-02-20T06:53:02.982Z,26.46
2024-02-20T06:54:02.981Z,26.47
2024-02-20T06:55:02.985Z,26.50
2024-02-20T06:56:03.033Z,26.50
2024-02-20T06:57:02.999Z,26.56
2024-02-20T06:58:02.994Z,26.54
2024-02-20T06:59:03.805Z,26.58
2024-02-20T07:00:02.987Z,26.58
2024-02-20T07:01:03.096Z,26.64
2024-02-20T07:02:02.999Z,26.65
2024-02-20T07:03:03.068Z,26.67
2024-02-20T07:04:03.213Z,26.70
2024-02-20T07:05:03.280Z,26.71
2024-02-20T07:06:03.410Z,26.73
2024-02-20T07:07:03.498Z,26.75
2024-02-20T07:08:03.375Z,26.75
2024-02-20T07:09:03.419Z,26.80
2024-02-20T07:10:04.022Z,26.80
2024-02-20T07:11:03.671Z,26.83
2024-02-20T07:12:03.640Z,26.81
2024-02-20T07:13:03.797Z,26.84
2024-02-20T07:14:03.734Z,26.84
2024-02-20T07:15:03.813Z,26.85
2024-02-20T07:16:03.962Z,26.87
2024-02-20T07:17:03.930Z,26.90
2024-02-20T07:18:03.981Z,26.91
2024-02-20T07:19:04.090Z,26.93
2024-02-20T07:20:04.252Z,26.94
2024-02-20T07:21:04.205Z,26.95
2024-02-20T07:22:04.266Z,26.99
2024-02-20T07:23:04.213Z,26.97
2024-02-20T07:24:04.278Z,26.98
2024-02-20T07:25:04.378Z,27.01
2024-02-20T07:26:04.410Z,26.99
2024-02-20T07:27:04.440Z,27.01
2024-02-20T07:28:04.480Z,27.02
2024-02-20T07:29:04.522Z,27.05
2024-02-20T07:30:04.576Z,27.04
2024-02-20T07:31:04.711Z,27.04
2024-02-20T07:32:04.637Z,27.04
2024-02-20T07:33:04.868Z,27.06
2024-02-20T07:34:09.790Z,27.06
2024-02-20T07:35:05.905Z,27.08
2024-02-20T07:36:04.973Z,27.06
2024-02-20T07:37:04.768Z,27.09
2024-02-20T07:38:04.721Z,27.09
2024-02-20T07:39:04.754Z,27.11
2024-02-20T07:40:04.844Z,27.14
2024-02-20T07:41:05.129Z,27.09
2024-02-20T07:42:04.735Z,27.15
2024-02-20T07:43:04.815Z,27.14
2024-02-20T07:44:04.738Z,27.15
2024-02-20T07:45:04.739Z,27.16
2024-02-20T07:46:04.814Z,27.18
2024-02-20T07:47:04.815Z,27.19
2024-02-20T07:48:04.874Z,27.21
2024-02-20T07:49:04.881Z,27.21
2024-02-20T07:50:04.947Z,27.22
2024-02-20T07:51:04.842Z,27.22
2024-02-20T07:52:04.799Z,27.25
2024-02-20T07:53:04.781Z,27.25
2024-02-20T07:54:04.730Z,27.26
2024-02-20T07:55:04.830Z,27.28
2024-02-20T07:56:04.832Z,27.28
2024-02-20T07:57:04.786Z,27.29
2024-02-20T07:58:04.822Z,27.29
2024-02-20T07:59:04.805Z,27.29
2024-02-20T08:00:04.808Z,27.32
2024-02-20T08:01:04.958Z,27.33
2024-02-20T08:02:04.913Z,27.36
2024-02-20T08:03:04.866Z,27.36
2024-02-20T08:04:04.984Z,27.38
2024-02-20T08:05:05.032Z,27.41
2024-02-20T08:06:04.897Z,27.36
2024-02-20T08:07:04.978Z,27.41
2024-02-20T08:08:04.973Z,27.39
2024-02-20T08:09:04.888Z,27.41
2024-02-20T08:10:04.925Z,27.42
2024-02-20T08:11:05.006Z,27.42
2024-02-20T08:12:04.929Z,27.43
2024-02-20T08:13:04.967Z,27.43
2024-02-20T08:14:04.933Z,27.45
2024-02-20T08:15:04.925Z,27.46
2024-02-20T08:16:05.026Z,27.48
2024-02-20T08:17:04.967Z,27.48
2024-02-20T08:18:05.040Z,27.49
2024-02-20T08:19:05.125Z,27.48
2024-02-20T08:20:05.064Z,27.48
2024-02-20T08:21:05.072Z,27.49
2024-02-20T08:22:05.083Z,27.50
2024-02-20T08:23:04.997Z,27.54
2024-02-20T08:24:05.009Z,27.54
2024-02-20T08:25:05.085Z,27.54
2024-02-20T08:26:05.067Z,27.54
2024-02-20T08:27:05.136Z,27.57
2024-02-20T08:28:05.166Z,27.59
2024-02-20T08:29:05.145Z,27.57
2024-02-20T08:30:05.188Z,27.57
2024-02-20T08:31:05.277Z,27.60
2024-02-20T08:32:05.225Z,27.56
2024-02-20T08:33:05.266Z,27.45
2024-02-20T08:34:06.719Z,27.21
2024-02-20T08:35:05.612Z,26.90
2024-02-20T08:36:05.502Z,26.58
2024-02-20T08:37:05.561Z,26.32
2024-02-20T08:38:05.626Z,26.00
2024-02-20T08:39:05.652Z,25.75
2024-02-20T08:40:05.711Z,25.55
2024-02-20T08:41:05.706Z,25.33
2024-02-20T08:42:05.751Z,25.13
2024-02-20T08:43:05.847Z,24.94
2024-02-20T08:44:05.878Z,24.80
2024-02-20T08:45:05.906Z,24.66
2024-02-20T08:46:05.999Z,24.52
2024-02-20T08:47:05.921Z,24.40
2024-02-20T08:48:06.126Z,24.31
2024-02-20T08:49:06.207Z,24.18
2024-02-20T08:50:06.051Z,24.07
2024-02-20T08:51:06.068Z,23.98
2024-02-20T08:52:06.170Z,23.93
2024-02-20T08:53:06.210Z,23.91
2024-02-20T08:54:06.265Z,24.04
2024-02-20T08:55:06.285Z,24.15
2024-02-20T08:56:06.313Z,24.27
2024-02-20T08:57:06.349Z,24.39
2024-02-20T08:58:06.423Z,24.56
2024-02-20T08:59:06.433Z,24.70
2024-02-20T09:00:06.453Z,24.85
2024-02-20T09:01:06.573Z,24.97
2024-02-20T09:02:06.582Z,25.13
2024-02-20T09:03:06.598Z,25.26
2024-02-20T09:04:06.728Z,25.38
2024-02-20T09:05:06.739Z,25.48
2024-02-20T09:06:06.916Z,25.61
2024-02-20T09:07:06.894Z,25.71
2024-02-20T09:08:06.862Z,25.84
2024-02-20T09:09:06.820Z,25.93
2024-02-20T09:10:06.873Z,26.06
2024-02-20T09:11:06.900Z,26.16
2024-02-20T09:12:06.903Z,26.26
2024-02-20T09:13:07.045Z,26.33
2024-02-20T09:14:07.028Z,26.40
2024-02-20T09:15:07.116Z,26.44
2024-02-20T09:16:07.290Z,26.50
2024-02-20T09:17:07.248Z,26.56
2024-02-20T09:18:08.524Z,26.60
2024-02-20T09:19:07.359Z,26.64
2024-02-20T09:20:07.491Z,26.70
2024-02-20T09:21:07.546Z,26.74
2024-02-20T09:22:07.535Z,26.77
2024-02-20T09:23:07.592Z,26.81
2024-02-20T09:24:07.566Z,26.85
2024-02-20T09:25:07.665Z,26.90
2024-02-20T09:26:07.886Z,26.93
2024-02-20T09:27:07.711Z,26.97
2024-02-20T09:28:07.813Z,26.99
2024-02-20T09:29:07.761Z,27.02
2024-02-20T09:30:07.892Z,27.05
2024-02-20T09:31:07.900Z,27.06
2024-02-20T09:32:07.867Z,27.08
2024-02-20T09:33:08.089Z,27.11
2024-02-20T09:34:08.056Z,27.12
2024-02-20T09:35:07.968Z,27.15
2024-02-20T09:36:07.991Z,27.16
2024-02-20T09:37:08.047Z,27.19
2024-02-20T09:38:08.001Z,27.21
2024-02-20T09:39:08.033Z,27.24
2024-02-20T09:40:08.119Z,27.18
2024-02-20T09:41:08.149Z,27.11
2024-02-20T09:42:08.189Z,27.01
2024-02-20T09:43:08.284Z,26.97
2024-02-20T09:44:08.298Z,26.95
2024-02-20T09:45:08.370Z,26.94
2024-02-20T09:46:08.520Z,26.98
2024-02-20T09:47:08.597Z,26.98
2024-02-20T09:48:08.680Z,26.97
2024-02-20T09:49:08.782Z,26.99
2024-02-20T09:50:08.690Z,27.05
2024-02-20T09:51:08.805Z,27.05
2024-02-20T09:52:08.825Z,27.08
2024-02-20T09:53:08.787Z,27.09
2024-02-20T09:54:08.816Z,27.11
2024-02-20T09:55:08.878Z,27.16
2024-02-20T09:56:08.862Z,27.16
2024-02-20T09:57:08.882Z,27.21
2024-02-20T09:58:08.929Z,27.24
2024-02-20T09:59:08.944Z,27.28
2024-02-20T10:00:08.936Z,27.28
2024-02-20T10:01:09.116Z,27.28
2024-02-20T10:02:09.028Z,27.33
2024-02-20T10:03:32.075Z,27.32
2024-02-20T10:04:09.697Z,27.33
2024-02-20T10:05:09.064Z,27.36
2024-02-20T10:06:08.981Z,27.35
2024-02-20T10:07:09.098Z,27.38
2024-02-20T10:08:08.963Z,27.38
2024-02-20T10:09:09.008Z,27.38
2024-02-20T10:10:09.008Z,27.42
2024-02-20T10:11:09.254Z,27.43
2024-02-20T10:12:09.062Z,27.45
2024-02-20T10:13:09.048Z,27.45
2024-02-20T10:14:08.991Z,27.46
2024-02-20T10:15:08.978Z,27.46
2024-02-20T10:16:09.000Z,27.46
2024-02-20T10:17:08.995Z,27.49
2024-02-20T10:18:09.133Z,27.48
2024-02-20T10:19:09.087Z,27.52
2024-02-20T10:20:09.157Z,27.49
2024-02-20T10:21:08.996Z,27.52
2024-02-20T10:22:09.067Z,27.53
2024-02-20T10:23:09.067Z,27.56
2024-02-20T10:24:11.898Z,27.56
2024-02-20T10:25:10.011Z,27.56
2024-02-20T10:26:09.001Z,27.59
2024-02-20T10:27:09.010Z,27.60
2024-02-20T10:28:09.286Z,27.59
2024-02-20T10:29:08.997Z,27.62
2024-02-20T10:30:09.042Z,27.63
2024-02-20T10:31:09.051Z,27.63
2024-02-20T10:32:08.994Z,27.64
2024-02-20T10:33:09.275Z,27.67
2024-02-20T10:34:14.434Z,27.67
2024-02-20T10:35:10.174Z,27.69
2024-02-20T10:36:09.008Z,27.70
2024-02-20T10:37:09.077Z,27.69
2024-02-20T10:38:09.001Z,27.67
2024-02-20T10:39:09.009Z,27.72
2024-02-20T10:40:17.913Z,27.67
2024-02-20T10:41:10.059Z,27.67
2024-02-20T10:42:09.057Z,27.67
2024-02-20T10:43:09.058Z,27.67
2024-02-20T10:44:09.072Z,27.67
2024-02-20T10:45:09.029Z,27.69
2024-02-20T10:46:09.086Z,27.67
2024-02-20T10:47:09.009Z,27.64
2024-02-20T10:48:09.116Z,27.64
2024-02-20T10:49:09.123Z,27.64
2024-02-20T10:50:09.064Z,27.64
2024-02-20T10:51:09.025Z,27.64
2024-02-20T10:52:09.069Z,27.62
2024-02-20T10:53:09.024Z,27.62
2024-02-20T10:54:09.042Z,27.60
2024-02-20T10:55:18.089Z,27.57
2024-02-20T10:56:10.065Z,27.57
2024-02-20T10:57:09.021Z,27.62
2024-02-20T10:58:09.123Z,27.59
2024-02-20T10:59:09.088Z,27.57
2024-02-20T11:00:09.029Z,27.62
2024-02-20T11:01:09.170Z,27.60
2024-02-20T11:02:09.137Z,27.54
2024-02-20T11:03:09.108Z,27.59
2024-02-20T11:05:09.126Z,27.59
2024-02-20T11:06:09.074Z,27.57
2024-02-20T11:07:09.263Z,27.57
2024-02-20T11:08:10.157Z,27.57
2024-02-20T11:09:09.060Z,27.57
2024-02-20T11:10:09.124Z,27.57
2024-02-20T11:11:09.111Z,27.56
2024-02-20T11:12:09.059Z,27.59
2024-02-20T11:13:09.122Z,27.54
2024-02-20T11:14:09.077Z,27.56
2024-02-20T11:15:09.072Z,27.56
2024-02-20T11:16:09.135Z,27.54
2024-02-20T11:17:17.027Z,27.56
2024-02-20T11:18:13.851Z,27.56
2024-02-20T11:19:09.350Z,27.53
2024-02-20T11:20:09.299Z,27.53
2024-02-20T11:21:09.122Z,27.54
2024-02-20T11:22:09.484Z,27.54
2024-02-20T11:23:09.098Z,27.54
2024-02-20T11:24:09.096Z,27.52
2024-02-20T11:25:09.123Z,27.54
2024-02-20T11:26:09.768Z,27.53
2024-02-20T11:27:09.105Z,27.53
2024-02-20T11:28:09.106Z,27.54
2024-02-20T11:29:09.100Z,27.54
2024-02-20T11:30:09.103Z,27.54
2024-02-20T11:31:09.277Z,27.56
2024-02-20T11:32:09.117Z,27.54
2024-02-20T11:33:09.142Z,27.53
2024-02-20T11:34:09.206Z,27.56
2024-02-20T11:35:09.308Z,27.57
2024-02-20T11:36:09.076Z,27.54
2024-02-20T11:37:09.121Z,27.56
2024-02-20T11:38:09.187Z,27.56
2024-02-20T11:39:09.075Z,27.56
2024-02-20T11:40:31.139Z,27.54
2024-02-20T11:41:09.355Z,27.54
2024-02-20T11:42:09.084Z,27.54
2024-02-20T11:43:09.153Z,27.54
2024-02-20T11:44:09.086Z,27.56
2024-02-20T11:45:09.092Z,27.54
2024-02-20T11:46:09.187Z,27.57
2024-02-20T11:47:10.205Z,27.54
2024-02-20T11:48:09.266Z,27.56
2024-02-20T11:49:09.190Z,27.54
2024-02-20T11:50:09.277Z,27.54
2024-02-20T11:51:09.149Z,27.54
2024-02-20T11:52:09.269Z,27.56
2024-02-20T11:53:09.219Z,27.56
2024-02-20T11:54:09.272Z,27.57
2024-02-20T11:55:09.259Z,27.54
2024-02-20T11:56:09.262Z,27.54
2024-02-20T11:57:09.238Z,27.56
2024-02-20T11:58:09.243Z,27.59
2024-02-20T11:59:09.298Z,27.56
2024-02-20T12:00:09.280Z,27.57
2024-02-20T12:01:09.360Z,27.56
2024-02-20T12:02:09.430Z,27.56
2024-02-20T12:03:09.287Z,27.56
2024-02-20T12:04:09.419Z,27.54
2024-02-20T12:05:09.370Z,27.53
2024-02-20T12:06:10.158Z,27.54
2024-02-20T12:07:09.416Z,27.53
2024-02-20T12:08:09.466Z,27.54
2024-02-20T12:09:09.328Z,27.54
2024-02-20T12:10:09.361Z,27.54
2024-02-20T12:11:09.482Z,27.56
2024-02-20T12:12:09.424Z,27.50
2024-02-20T12:13:09.388Z,27.50
2024-02-20T12:14:09.383Z,27.52
2024-02-20T12:15:09.400Z,27.52
2024-02-20T12:16:09.446Z,27.52
2024-02-20T12:17:09.530Z,27.49
2024-02-20T12:18:09.628Z,27.50
2024-02-20T12:19:14.038Z,27.49
2024-02-20T12:20:10.537Z,27.49
2024-02-20T12:21:09.467Z,27.48
2024-02-20T12:22:09.612Z,27.49
2024-02-20T12:23:09.478Z,27.45
2024-02-20T12:24:09.477Z,27.48
2024-02-20T12:25:09.526Z,27.46
2024-02-20T12:26:31.494Z,27.46
2024-02-20T12:27:09.510Z,27.48
2024-02-20T12:28:09.526Z,27.46
2024-02-20T12:29:09.489Z,27.48
2024-02-20T12:30:09.514Z,27.45
2024-02-20T12:31:09.707Z,27.45
2024-02-20T12:32:09.504Z,27.45
2024-02-20T12:33:09.558Z,27.45
2024-02-20T12:34:09.709Z,27.42
2024-02-20T12:35:09.603Z,27.45
2024-02-20T12:36:09.527Z,27.43
2024-02-20T12:37:09.744Z,27.45
2024-02-20T12:38:09.528Z,27.46
2024-02-20T12:39:09.515Z,27.43
2024-02-20T12:40:09.554Z,27.45
2024-02-20T12:41:09.501Z,27.43
2024-02-20T12:42:09.514Z,27.43
2024-02-20T12:43:09.533Z,27.43
2024-02-20T12:44:09.517Z,27.45
2024-02-20T12:45:09.491Z,27.46
2024-02-20T12:46:09.592Z,27.42
2024-02-20T12:47:09.509Z,27.45
2024-02-20T12:48:09.617Z,27.45
2024-02-20T12:49:09.600Z,27.43
2024-02-20T12:50:09.531Z,27.45
2024-02-20T12:51:09.496Z,27.43
2024-02-20T12:52:09.623Z,27.45
2024-02-20T12:53:09.528Z,27.45
2024-02-20T12:54:09.498Z,27.46
2024-02-20T12:55:09.557Z,27.43